National Weather Service Raw Text Product

Displaying AFOS PIL: TAFALO Received: 2018-07-12 11:20 UTC


426 
FTUS43 KDMX 121120
TAFALO
TAF
KALO 121120Z 1212/1312 17008KT P6SM SKC=